sensor_id;sensor_type;location;lat;lon;timestamp;P1;durP1;ratioP1;P2;durP2;ratioP2
44816;SDS011;30529;53.570;9.964;2022-10-16T00:02:01;5.67;;;4.50;;
44816;SDS011;30529;53.570;9.964;2022-10-16T00:04:27;6.60;;;4.60;;
44816;SDS011;30529;53.570;9.964;2022-10-16T00:06:53;8.37;;;5.20;;
44816;SDS011;30529;53.570;9.964;2022-10-16T00:09:19;7.47;;;4.60;;
44816;SDS011;30529;53.570;9.964;2022-10-16T00:11:45;6.40;;;4.40;;
44816;SDS011;30529;53.570;9.964;2022-10-16T00:14:12;7.50;;;4.13;;
44816;SDS011;30529;53.570;9.964;2022-10-16T00:16:40;9.67;;;4.50;;
44816;SDS011;30529;53.570;9.964;2022-10-16T00:19:06;4.87;;;3.73;;
44816;SDS011;30529;53.570;9.964;2022-10-16T00:21:33;5.40;;;3.40;;
44816;SDS011;30529;53.570;9.964;2022-10-16T00:24:01;7.80;;;3.67;;
44816;SDS011;30529;53.570;9.964;2022-10-16T00:26:32;6.83;;;3.07;;
44816;SDS011;30529;53.570;9.964;2022-10-16T00:28:59;7.23;;;2.83;;
44816;SDS011;30529;53.570;9.964;2022-10-16T00:31:25;6.23;;;3.53;;
44816;SDS011;30529;53.570;9.964;2022-10-16T00:33:52;5.60;;;2.70;;
44816;SDS011;30529;53.570;9.964;2022-10-16T00:36:19;5.43;;;3.13;;
44816;SDS011;30529;53.570;9.964;2022-10-16T00:38:47;4.77;;;2.57;;
44816;SDS011;30529;53.570;9.964;2022-10-16T00:41:18;2.83;;;2.10;;
44816;SDS011;30529;53.570;9.964;2022-10-16T00:43:45;5.53;;;2.20;;
44816;SDS011;30529;53.570;9.964;2022-10-16T00:46:29;5.50;;;2.67;;
44816;SDS011;30529;53.570;9.964;2022-10-16T00:54:04;5.27;;;2.27;;
44816;SDS011;30529;53.570;9.964;2022-10-16T00:56:39;5.10;;;2.37;;
44816;SDS011;30529;53.570;9.964;2022-10-16T00:59:10;6.10;;;2.17;;
44816;SDS011;30529;53.570;9.964;2022-10-16T01:01:42;2.87;;;1.97;;
44816;SDS011;30529;53.570;9.964;2022-10-16T01:04:08;6.07;;;2.20;;
44816;SDS011;30529;53.570;9.964;2022-10-16T01:06:41;3.23;;;2.00;;
44816;SDS011;30529;53.570;9.964;2022-10-16T01:09:23;5.00;;;2.10;;
44816;SDS011;30529;53.570;9.964;2022-10-16T01:11:57;5.93;;;1.83;;
44816;SDS011;30529;53.570;9.964;2022-10-16T01:17:22;3.63;;;1.97;;
44816;SDS011;30529;53.570;9.964;2022-10-16T01:20:24;7.63;;;1.93;;
44816;SDS011;30529;53.570;9.964;2022-10-16T01:28:22;3.83;;;2.20;;
44816;SDS011;30529;53.570;9.964;2022-10-16T01:30:53;7.03;;;2.57;;
44816;SDS011;30529;53.570;9.964;2022-10-16T01:33:24;3.73;;;2.10;;
44816;SDS011;30529;53.570;9.964;2022-10-16T01:35:57;2.97;;;1.67;;
44816;SDS011;30529;53.570;9.964;2022-10-16T01:38:30;9.27;;;1.90;;
44816;SDS011;30529;53.570;9.964;2022-10-16T01:41:01;3.20;;;1.67;;
44816;SDS011;30529;53.570;9.964;2022-10-16T01:43:38;2.73;;;1.70;;
44816;SDS011;30529;53.570;9.964;2022-10-16T01:46:10;3.60;;;1.87;;
44816;SDS011;30529;53.570;9.964;2022-10-16T01:48:39;6.50;;;1.90;;
44816;SDS011;30529;53.570;9.964;2022-10-16T01:51:08;3.40;;;1.87;;
44816;SDS011;30529;53.570;9.964;2022-10-16T01:53:37;2.53;;;1.90;;
44816;SDS011;30529;53.570;9.964;2022-10-16T01:56:07;6.00;;;2.17;;
44816;SDS011;30529;53.570;9.964;2022-10-16T01:58:37;4.20;;;2.00;;
44816;SDS011;30529;53.570;9.964;2022-10-16T02:01:11;5.23;;;2.00;;
44816;SDS011;30529;53.570;9.964;2022-10-16T02:03:40;7.30;;;2.63;;
44816;SDS011;30529;53.570;9.964;2022-10-16T02:06:09;5.43;;;1.90;;
44816;SDS011;30529;53.570;9.964;2022-10-16T02:08:36;2.93;;;1.47;;
44816;SDS011;30529;53.570;9.964;2022-10-16T02:11:03;2.83;;;1.50;;
44816;SDS011;30529;53.570;9.964;2022-10-16T02:13:31;2.73;;;1.87;;
44816;SDS011;30529;53.570;9.964;2022-10-16T02:16:02;5.40;;;1.73;;
44816;SDS011;30529;53.570;9.964;2022-10-16T02:18:28;3.87;;;1.90;;
44816;SDS011;30529;53.570;9.964;2022-10-16T02:21:04;3.40;;;1.87;;
44816;SDS011;30529;53.570;9.964;2022-10-16T02:26:20;2.10;;;1.30;;
44816;SDS011;30529;53.570;9.964;2022-10-16T02:29:04;3.97;;;1.60;;
44816;SDS011;30529;53.570;9.964;2022-10-16T02:31:34;4.60;;;1.73;;
44816;SDS011;30529;53.570;9.964;2022-10-16T02:34:03;3.53;;;1.60;;
44816;SDS011;30529;53.570;9.964;2022-10-16T02:36:32;3.37;;;1.40;;
44816;SDS011;30529;53.570;9.964;2022-10-16T02:39:00;7.63;;;2.27;;
44816;SDS011;30529;53.570;9.964;2022-10-16T02:41:29;3.97;;;1.77;;
44816;SDS011;30529;53.570;9.964;2022-10-16T02:43:55;5.50;;;1.50;;
44816;SDS011;30529;53.570;9.964;2022-10-16T02:46:21;6.10;;;1.80;;
44816;SDS011;30529;53.570;9.964;2022-10-16T02:48:48;4.50;;;1.60;;
44816;SDS011;30529;53.570;9.964;2022-10-16T02:51:14;4.27;;;1.40;;
44816;SDS011;30529;53.570;9.964;2022-10-16T02:53:40;3.60;;;1.60;;
44816;SDS011;30529;53.570;9.964;2022-10-16T02:56:06;5.83;;;1.70;;
44816;SDS011;30529;53.570;9.964;2022-10-16T02:58:32;2.20;;;1.50;;
44816;SDS011;30529;53.570;9.964;2022-10-16T03:00:58;3.87;;;1.60;;
44816;SDS011;30529;53.570;9.964;2022-10-16T03:03:24;4.83;;;1.60;;
44816;SDS011;30529;53.570;9.964;2022-10-16T03:05:50;5.57;;;1.87;;
44816;SDS011;30529;53.570;9.964;2022-10-16T03:08:16;4.97;;;1.70;;
44816;SDS011;30529;53.570;9.964;2022-10-16T03:10:43;4.03;;;1.60;;
44816;SDS011;30529;53.570;9.964;2022-10-16T03:13:09;3.23;;;1.37;;
44816;SDS011;30529;53.570;9.964;2022-10-16T03:15:35;7.63;;;1.73;;
44816;SDS011;30529;53.570;9.964;2022-10-16T03:18:01;5.40;;;2.03;;
44816;SDS011;30529;53.570;9.964;2022-10-16T03:20:27;3.27;;;1.50;;
44816;SDS011;30529;53.570;9.964;2022-10-16T03:22:53;1.67;;;1.17;;
44816;SDS011;30529;53.570;9.964;2022-10-16T03:25:19;2.10;;;1.07;;
44816;SDS011;30529;53.570;9.964;2022-10-16T03:27:45;3.20;;;1.67;;
44816;SDS011;30529;53.570;9.964;2022-10-16T03:30:11;4.47;;;1.30;;
44816;SDS011;30529;53.570;9.964;2022-10-16T03:32:38;3.73;;;1.77;;
44816;SDS011;30529;53.570;9.964;2022-10-16T03:35:04;2.53;;;1.40;;
44816;SDS011;30529;53.570;9.964;2022-10-16T03:37:30;2.77;;;1.60;;
44816;SDS011;30529;53.570;9.964;2022-10-16T03:39:56;2.60;;;1.23;;
44816;SDS011;30529;53.570;9.964;2022-10-16T03:42:22;3.60;;;1.40;;
44816;SDS011;30529;53.570;9.964;2022-10-16T03:44:49;3.93;;;1.53;;
44816;SDS011;30529;53.570;9.964;2022-10-16T03:47:16;4.70;;;1.53;;
44816;SDS011;30529;53.570;9.964;2022-10-16T03:49:46;3.53;;;1.43;;
44816;SDS011;30529;53.570;9.964;2022-10-16T03:52:12;3.13;;;1.47;;
44816;SDS011;30529;53.570;9.964;2022-10-16T03:54:38;4.43;;;1.20;;
44816;SDS011;30529;53.570;9.964;2022-10-16T03:57:04;7.00;;;1.57;;
44816;SDS011;30529;53.570;9.964;2022-10-16T03:59:30;2.97;;;1.33;;
44816;SDS011;30529;53.570;9.964;2022-10-16T04:01:56;5.87;;;1.73;;
44816;SDS011;30529;53.570;9.964;2022-10-16T04:04:22;2.17;;;1.17;;
44816;SDS011;30529;53.570;9.964;2022-10-16T04:06:50;4.67;;;1.20;;
44816;SDS011;30529;53.570;9.964;2022-10-16T04:09:16;3.07;;;1.47;;
44816;SDS011;30529;53.570;9.964;2022-10-16T04:11:42;3.07;;;1.50;;
44816;SDS011;30529;53.570;9.964;2022-10-16T04:14:09;4.17;;;1.40;;
44816;SDS011;30529;53.570;9.964;2022-10-16T04:16:35;3.30;;;1.60;;
44816;SDS011;30529;53.570;9.964;2022-10-16T04:19:01;3.00;;;1.20;;
44816;SDS011;30529;53.570;9.964;2022-10-16T04:21:27;3.73;;;1.30;;
44816;SDS011;30529;53.570;9.964;2022-10-16T04:23:53;3.83;;;1.40;;
44816;SDS011;30529;53.570;9.964;2022-10-16T04:26:19;2.40;;;1.30;;
44816;SDS011;30529;53.570;9.964;2022-10-16T04:28:46;3.07;;;1.50;;
44816;SDS011;30529;53.570;9.964;2022-10-16T04:31:12;3.73;;;1.10;;
44816;SDS011;30529;53.570;9.964;2022-10-16T04:33:38;4.60;;;1.40;;
44816;SDS011;30529;53.570;9.964;2022-10-16T04:36:04;4.27;;;1.70;;
44816;SDS011;30529;53.570;9.964;2022-10-16T04:38:31;7.57;;;1.47;;
44816;SDS011;30529;53.570;9.964;2022-10-16T04:40:57;7.50;;;1.30;;
44816;SDS011;30529;53.570;9.964;2022-10-16T04:43:23;3.67;;;1.50;;
44816;SDS011;30529;53.570;9.964;2022-10-16T04:45:49;2.77;;;1.40;;
44816;SDS011;30529;53.570;9.964;2022-10-16T04:48:16;3.57;;;1.40;;
44816;SDS011;30529;53.570;9.964;2022-10-16T04:50:44;3.97;;;1.43;;
44816;SDS011;30529;53.570;9.964;2022-10-16T04:53:10;4.20;;;1.60;;
44816;SDS011;30529;53.570;9.964;2022-10-16T04:55:36;6.83;;;1.73;;
44816;SDS011;30529;53.570;9.964;2022-10-16T04:58:03;3.60;;;1.50;;
44816;SDS011;30529;53.570;9.964;2022-10-16T05:00:30;3.67;;;1.83;;
44816;SDS011;30529;53.570;9.964;2022-10-16T05:02:56;5.03;;;2.03;;
44816;SDS011;30529;53.570;9.964;2022-10-16T05:05:23;4.77;;;1.90;;
44816;SDS011;30529;53.570;9.964;2022-10-16T05:07:49;3.63;;;2.07;;
44816;SDS011;30529;53.570;9.964;2022-10-16T05:10:16;6.73;;;2.27;;
44816;SDS011;30529;53.570;9.964;2022-10-16T05:12:42;6.97;;;1.67;;
44816;SDS011;30529;53.570;9.964;2022-10-16T05:15:09;5.10;;;1.80;;
44816;SDS011;30529;53.570;9.964;2022-10-16T05:17:35;5.70;;;1.90;;
44816;SDS011;30529;53.570;9.964;2022-10-16T05:20:01;2.07;;;1.87;;
44816;SDS011;30529;53.570;9.964;2022-10-16T05:22:28;4.63;;;2.57;;
44816;SDS011;30529;53.570;9.964;2022-10-16T05:24:54;7.87;;;2.30;;
44816;SDS011;30529;53.570;9.964;2022-10-16T05:27:20;4.30;;;1.83;;
44816;SDS011;30529;53.570;9.964;2022-10-16T05:29:47;7.30;;;2.50;;
44816;SDS011;30529;53.570;9.964;2022-10-16T05:32:14;4.13;;;2.20;;
44816;SDS011;30529;53.570;9.964;2022-10-16T05:34:42;3.77;;;1.90;;
44816;SDS011;30529;53.570;9.964;2022-10-16T05:37:08;5.90;;;2.37;;
44816;SDS011;30529;53.570;9.964;2022-10-16T05:39:34;5.73;;;1.97;;
44816;SDS011;30529;53.570;9.964;2022-10-16T05:42:02;4.87;;;1.80;;
44816;SDS011;30529;53.570;9.964;2022-10-16T05:44:29;3.23;;;1.53;;
44816;SDS011;30529;53.570;9.964;2022-10-16T05:46:55;6.93;;;2.07;;
44816;SDS011;30529;53.570;9.964;2022-10-16T05:49:21;3.70;;;1.80;;
44816;SDS011;30529;53.570;9.964;2022-10-16T05:51:48;3.90;;;2.07;;
44816;SDS011;30529;53.570;9.964;2022-10-16T05:54:14;4.93;;;1.90;;
44816;SDS011;30529;53.570;9.964;2022-10-16T05:56:41;4.97;;;1.73;;
44816;SDS011;30529;53.570;9.964;2022-10-16T05:59:10;3.83;;;1.57;;
44816;SDS011;30529;53.570;9.964;2022-10-16T06:01:36;2.67;;;1.57;;
44816;SDS011;30529;53.570;9.964;2022-10-16T06:04:02;5.70;;;1.90;;
44816;SDS011;30529;53.570;9.964;2022-10-16T06:06:28;5.20;;;1.70;;
44816;SDS011;30529;53.570;9.964;2022-10-16T06:08:56;2.67;;;1.50;;
44816;SDS011;30529;53.570;9.964;2022-10-16T06:11:24;6.43;;;1.93;;
44816;SDS011;30529;53.570;9.964;2022-10-16T06:13:53;3.73;;;1.57;;
44816;SDS011;30529;53.570;9.964;2022-10-16T06:16:22;6.93;;;1.63;;
44816;SDS011;30529;53.570;9.964;2022-10-16T06:18:52;5.37;;;2.00;;
44816;SDS011;30529;53.570;9.964;2022-10-16T06:21:20;3.40;;;1.30;;
44816;SDS011;30529;53.570;9.964;2022-10-16T06:23:50;5.53;;;2.03;;
44816;SDS011;30529;53.570;9.964;2022-10-16T06:26:17;2.33;;;1.80;;
44816;SDS011;30529;53.570;9.964;2022-10-16T06:28:45;3.63;;;1.83;;
44816;SDS011;30529;53.570;9.964;2022-10-16T06:31:12;5.60;;;1.73;;
44816;SDS011;30529;53.570;9.964;2022-10-16T06:33:39;6.57;;;1.63;;
44816;SDS011;30529;53.570;9.964;2022-10-16T06:36:07;3.80;;;1.70;;
44816;SDS011;30529;53.570;9.964;2022-10-16T06:38:35;5.10;;;2.00;;
44816;SDS011;30529;53.570;9.964;2022-10-16T06:41:04;5.93;;;2.00;;
44816;SDS011;30529;53.570;9.964;2022-10-16T06:43:32;8.73;;;2.20;;
44816;SDS011;30529;53.570;9.964;2022-10-16T06:46:00;5.33;;;2.20;;
44816;SDS011;30529;53.570;9.964;2022-10-16T06:48:28;3.80;;;2.00;;
44816;SDS011;30529;53.570;9.964;2022-10-16T06:50:58;3.40;;;2.20;;
44816;SDS011;30529;53.570;9.964;2022-10-16T06:53:25;3.77;;;2.30;;
44816;SDS011;30529;53.570;9.964;2022-10-16T06:55:54;4.97;;;2.17;;
44816;SDS011;30529;53.570;9.964;2022-10-16T06:58:20;4.00;;;2.50;;
44816;SDS011;30529;53.570;9.964;2022-10-16T07:00:47;4.03;;;1.93;;
44816;SDS011;30529;53.570;9.964;2022-10-16T07:03:13;4.97;;;2.10;;
44816;SDS011;30529;53.570;9.964;2022-10-16T07:05:40;3.17;;;1.97;;
44816;SDS011;30529;53.570;9.964;2022-10-16T07:08:07;2.80;;;1.80;;
44816;SDS011;30529;53.570;9.964;2022-10-16T07:10:34;4.70;;;2.00;;
44816;SDS011;30529;53.570;9.964;2022-10-16T07:13:01;4.93;;;2.00;;
44816;SDS011;30529;53.570;9.964;2022-10-16T07:15:27;2.70;;;1.90;;
44816;SDS011;30529;53.570;9.964;2022-10-16T07:17:53;2.97;;;1.87;;
44816;SDS011;30529;53.570;9.964;2022-10-16T07:20:19;3.23;;;2.07;;
44816;SDS011;30529;53.570;9.964;2022-10-16T07:22:46;2.77;;;1.70;;
44816;SDS011;30529;53.570;9.964;2022-10-16T07:25:12;5.40;;;1.97;;
44816;SDS011;30529;53.570;9.964;2022-10-16T07:27:38;6.07;;;2.63;;
44816;SDS011;30529;53.570;9.964;2022-10-16T07:30:05;3.67;;;2.60;;
44816;SDS011;30529;53.570;9.964;2022-10-16T07:32:31;4.67;;;2.30;;
44816;SDS011;30529;53.570;9.964;2022-10-16T07:34:57;4.27;;;2.10;;
44816;SDS011;30529;53.570;9.964;2022-10-16T07:37:24;5.77;;;2.40;;
44816;SDS011;30529;53.570;9.964;2022-10-16T07:39:50;4.30;;;2.43;;
44816;SDS011;30529;53.570;9.964;2022-10-16T07:42:16;5.77;;;2.60;;
44816;SDS011;30529;53.570;9.964;2022-10-16T07:44:42;6.10;;;2.60;;
44816;SDS011;30529;53.570;9.964;2022-10-16T07:47:08;3.33;;;2.30;;
44816;SDS011;30529;53.570;9.964;2022-10-16T07:49:35;4.97;;;2.30;;
44816;SDS011;30529;53.570;9.964;2022-10-16T07:52:01;4.27;;;2.50;;
44816;SDS011;30529;53.570;9.964;2022-10-16T07:54:27;3.47;;;2.33;;
44816;SDS011;30529;53.570;9.964;2022-10-16T07:56:53;6.23;;;2.17;;
44816;SDS011;30529;53.570;9.964;2022-10-16T07:59:20;4.23;;;2.20;;
44816;SDS011;30529;53.570;9.964;2022-10-16T08:01:46;3.43;;;2.27;;
44816;SDS011;30529;53.570;9.964;2022-10-16T08:04:14;5.97;;;2.93;;
44816;SDS011;30529;53.570;9.964;2022-10-16T08:06:40;3.70;;;2.43;;
44816;SDS011;30529;53.570;9.964;2022-10-16T08:09:07;3.87;;;2.40;;
44816;SDS011;30529;53.570;9.964;2022-10-16T08:11:34;3.40;;;2.47;;
44816;SDS011;30529;53.570;9.964;2022-10-16T08:14:01;3.90;;;2.47;;
44816;SDS011;30529;53.570;9.964;2022-10-16T08:16:27;6.67;;;2.47;;
44816;SDS011;30529;53.570;9.964;2022-10-16T08:18:53;5.07;;;2.43;;
44816;SDS011;30529;53.570;9.964;2022-10-16T08:21:22;4.10;;;2.53;;
44816;SDS011;30529;53.570;9.964;2022-10-16T08:23:49;6.30;;;2.80;;
44816;SDS011;30529;53.570;9.964;2022-10-16T08:26:17;9.40;;;2.57;;
44816;SDS011;30529;53.570;9.964;2022-10-16T08:28:44;5.10;;;2.27;;
44816;SDS011;30529;53.570;9.964;2022-10-16T08:31:14;4.40;;;2.20;;
44816;SDS011;30529;53.570;9.964;2022-10-16T08:33:42;6.27;;;3.10;;
44816;SDS011;30529;53.570;9.964;2022-10-16T08:36:11;5.63;;;2.20;;
44816;SDS011;30529;53.570;9.964;2022-10-16T08:38:37;6.90;;;2.40;;
44816;SDS011;30529;53.570;9.964;2022-10-16T08:49:26;6.20;;;2.50;;
44816;SDS011;30529;53.570;9.964;2022-10-16T08:51:54;4.43;;;2.70;;
44816;SDS011;30529;53.570;9.964;2022-10-16T08:56:56;5.90;;;2.70;;
44816;SDS011;30529;53.570;9.964;2022-10-16T09:05:39;3.17;;;1.87;;
44816;SDS011;30529;53.570;9.964;2022-10-16T09:16:41;5.47;;;1.97;;
44816;SDS011;30529;53.570;9.964;2022-10-16T09:21:50;4.77;;;2.03;;
44816;SDS011;30529;53.570;9.964;2022-10-16T09:24:20;2.90;;;1.40;;
44816;SDS011;30529;53.570;9.964;2022-10-16T09:26:49;3.53;;;1.43;;
44816;SDS011;30529;53.570;9.964;2022-10-16T09:29:16;4.07;;;1.47;;
44816;SDS011;30529;53.570;9.964;2022-10-16T09:31:45;4.70;;;1.50;;
44816;SDS011;30529;53.570;9.964;2022-10-16T09:34:19;5.23;;;1.53;;
44816;SDS011;30529;53.570;9.964;2022-10-16T09:36:57;3.53;;;1.53;;
44816;SDS011;30529;53.570;9.964;2022-10-16T09:39:24;4.90;;;1.50;;
44816;SDS011;30529;53.570;9.964;2022-10-16T09:41:50;3.80;;;2.03;;
44816;SDS011;30529;53.570;9.964;2022-10-16T09:44:19;4.20;;;1.40;;
44816;SDS011;30529;53.570;9.964;2022-10-16T09:47:04;2.53;;;1.13;;
44816;SDS011;30529;53.570;9.964;2022-10-16T09:49:37;3.77;;;1.50;;
44816;SDS011;30529;53.570;9.964;2022-10-16T09:55:15;4.53;;;1.30;;
44816;SDS011;30529;53.570;9.964;2022-10-16T09:57:52;2.50;;;1.30;;
44816;SDS011;30529;53.570;9.964;2022-10-16T10:00:20;2.77;;;1.27;;
44816;SDS011;30529;53.570;9.964;2022-10-16T10:02:48;5.17;;;1.47;;
44816;SDS011;30529;53.570;9.964;2022-10-16T10:05:23;3.83;;;1.30;;
44816;SDS011;30529;53.570;9.964;2022-10-16T10:08:03;6.33;;;1.97;;
44816;SDS011;30529;53.570;9.964;2022-10-16T10:10:41;4.27;;;1.30;;
44816;SDS011;30529;53.570;9.964;2022-10-16T10:13:21;5.33;;;1.50;;
44816;SDS011;30529;53.570;9.964;2022-10-16T10:16:10;7.77;;;2.03;;
44816;SDS011;30529;53.570;9.964;2022-10-16T10:18:36;4.87;;;1.50;;
44816;SDS011;30529;53.570;9.964;2022-10-16T10:37:07;3.00;;;1.30;;
44816;SDS011;30529;53.570;9.964;2022-10-16T10:39:38;5.50;;;1.30;;
44816;SDS011;30529;53.570;9.964;2022-10-16T10:42:29;3.53;;;1.47;;
44816;SDS011;30529;53.570;9.964;2022-10-16T10:45:16;5.57;;;1.47;;
44816;SDS011;30529;53.570;9.964;2022-10-16T10:48:03;3.90;;;1.40;;
44816;SDS011;30529;53.570;9.964;2022-10-16T10:50:48;3.73;;;1.10;;
44816;SDS011;30529;53.570;9.964;2022-10-16T10:53:33;4.80;;;1.30;;
44816;SDS011;30529;53.570;9.964;2022-10-16T10:59:36;4.33;;;1.20;;
44816;SDS011;30529;53.570;9.964;2022-10-16T11:08:02;3.37;;;1.23;;
44816;SDS011;30529;53.570;9.964;2022-10-16T11:10:44;4.73;;;1.50;;
44816;SDS011;30529;53.570;9.964;2022-10-16T11:15:51;3.40;;;0.93;;
44816;SDS011;30529;53.570;9.964;2022-10-16T11:18:24;3.17;;;1.13;;
44816;SDS011;30529;53.570;9.964;2022-10-16T11:21:12;2.87;;;1.10;;
44816;SDS011;30529;53.570;9.964;2022-10-16T11:23:42;1.63;;;0.77;;
44816;SDS011;30529;53.570;9.964;2022-10-16T11:26:12;2.63;;;1.20;;
44816;SDS011;30529;53.570;9.964;2022-10-16T11:28:53;5.17;;;0.93;;
44816;SDS011;30529;53.570;9.964;2022-10-16T11:34:38;3.60;;;1.00;;
44816;SDS011;30529;53.570;9.964;2022-10-16T11:37:21;2.03;;;1.10;;
44816;SDS011;30529;53.570;9.964;2022-10-16T11:42:59;7.13;;;0.90;;
44816;SDS011;30529;53.570;9.964;2022-10-16T11:45:37;3.33;;;0.87;;
44816;SDS011;30529;53.570;9.964;2022-10-16T11:48:27;3.13;;;1.00;;
44816;SDS011;30529;53.570;9.964;2022-10-16T11:53:47;2.60;;;0.80;;
44816;SDS011;30529;53.570;9.964;2022-10-16T11:56:21;4.03;;;1.20;;
44816;SDS011;30529;53.570;9.964;2022-10-16T11:59:01;25.83;;;12.60;;
44816;SDS011;30529;53.570;9.964;2022-10-16T12:04:52;3.53;;;1.30;;
44816;SDS011;30529;53.570;9.964;2022-10-16T12:07:32;4.03;;;1.10;;
44816;SDS011;30529;53.570;9.964;2022-10-16T12:10:21;3.73;;;1.00;;
44816;SDS011;30529;53.570;9.964;2022-10-16T12:12:50;3.30;;;1.17;;
44816;SDS011;30529;53.570;9.964;2022-10-16T12:15:21;3.80;;;1.47;;
44816;SDS011;30529;53.570;9.964;2022-10-16T12:17:52;5.03;;;1.10;;
44816;SDS011;30529;53.570;9.964;2022-10-16T12:22:48;4.60;;;1.20;;
44816;SDS011;30529;53.570;9.964;2022-10-16T12:30:52;4.70;;;1.30;;
44816;SDS011;30529;53.570;9.964;2022-10-16T12:33:21;4.03;;;1.03;;
44816;SDS011;30529;53.570;9.964;2022-10-16T12:35:52;5.47;;;1.13;;
44816;SDS011;30529;53.570;9.964;2022-10-16T12:38:20;2.30;;;0.90;;
44816;SDS011;30529;53.570;9.964;2022-10-16T12:41:05;4.23;;;1.13;;
44816;SDS011;30529;53.570;9.964;2022-10-16T12:43:40;5.23;;;1.20;;
44816;SDS011;30529;53.570;9.964;2022-10-16T12:48:37;8.27;;;1.20;;
44816;SDS011;30529;53.570;9.964;2022-10-16T12:54:03;2.77;;;0.90;;
44816;SDS011;30529;53.570;9.964;2022-10-16T12:59:29;6.37;;;1.43;;
44816;SDS011;30529;53.570;9.964;2022-10-16T13:07:43;5.83;;;0.93;;
44816;SDS011;30529;53.570;9.964;2022-10-16T13:10:31;4.97;;;1.20;;
44816;SDS011;30529;53.570;9.964;2022-10-16T13:24:15;5.63;;;1.00;;
44816;SDS011;30529;53.570;9.964;2022-10-16T13:26:56;2.13;;;0.93;;
44816;SDS011;30529;53.570;9.964;2022-10-16T13:29:32;6.20;;;1.00;;
44816;SDS011;30529;53.570;9.964;2022-10-16T13:32:00;4.97;;;1.17;;
44816;SDS011;30529;53.570;9.964;2022-10-16T13:34:32;3.87;;;1.10;;
44816;SDS011;30529;53.570;9.964;2022-10-16T13:36:58;4.83;;;1.40;;
44816;SDS011;30529;53.570;9.964;2022-10-16T13:42:03;5.27;;;1.80;;
44816;SDS011;30529;53.570;9.964;2022-10-16T13:44:35;1.97;;;0.90;;
44816;SDS011;30529;53.570;9.964;2022-10-16T13:47:17;4.60;;;0.90;;
44816;SDS011;30529;53.570;9.964;2022-10-16T13:49:43;7.00;;;1.73;;
44816;SDS011;30529;53.570;9.964;2022-10-16T13:52:20;5.63;;;1.30;;
44816;SDS011;30529;53.570;9.964;2022-10-16T13:54:46;3.50;;;0.97;;
44816;SDS011;30529;53.570;9.964;2022-10-16T13:57:14;4.20;;;1.00;;
44816;SDS011;30529;53.570;9.964;2022-10-16T14:00:19;5.13;;;1.87;;
44816;SDS011;30529;53.570;9.964;2022-10-16T14:02:51;6.43;;;1.47;;
44816;SDS011;30529;53.570;9.964;2022-10-16T14:05:21;3.33;;;1.03;;
44816;SDS011;30529;53.570;9.964;2022-10-16T14:07:49;3.80;;;1.20;;
44816;SDS011;30529;53.570;9.964;2022-10-16T14:10:21;5.53;;;1.30;;
44816;SDS011;30529;53.570;9.964;2022-10-16T14:12:56;4.47;;;1.57;;
44816;SDS011;30529;53.570;9.964;2022-10-16T14:15:23;5.10;;;1.73;;
44816;SDS011;30529;53.570;9.964;2022-10-16T14:17:50;5.10;;;1.10;;
44816;SDS011;30529;53.570;9.964;2022-10-16T14:20:18;4.83;;;1.30;;
44816;SDS011;30529;53.570;9.964;2022-10-16T14:22:48;4.93;;;1.03;;
44816;SDS011;30529;53.570;9.964;2022-10-16T14:25:43;5.60;;;1.10;;
44816;SDS011;30529;53.570;9.964;2022-10-16T14:28:14;2.77;;;1.10;;
44816;SDS011;30529;53.570;9.964;2022-10-16T14:30:56;2.73;;;1.00;;
44816;SDS011;30529;53.570;9.964;2022-10-16T14:35:58;5.03;;;1.50;;
44816;SDS011;30529;53.570;9.964;2022-10-16T14:38:25;7.47;;;1.40;;
44816;SDS011;30529;53.570;9.964;2022-10-16T14:40:52;5.33;;;1.00;;
44816;SDS011;30529;53.570;9.964;2022-10-16T14:43:20;11.93;;;1.80;;
44816;SDS011;30529;53.570;9.964;2022-10-16T14:46:09;6.47;;;1.40;;
44816;SDS011;30529;53.570;9.964;2022-10-16T14:48:42;11.33;;;2.17;;
44816;SDS011;30529;53.570;9.964;2022-10-16T14:51:15;4.43;;;1.00;;
44816;SDS011;30529;53.570;9.964;2022-10-16T14:53:51;6.63;;;1.70;;
44816;SDS011;30529;53.570;9.964;2022-10-16T14:56:22;4.70;;;1.10;;
44816;SDS011;30529;53.570;9.964;2022-10-16T14:58:50;3.57;;;1.17;;
44816;SDS011;30529;53.570;9.964;2022-10-16T15:01:21;5.60;;;1.77;;
44816;SDS011;30529;53.570;9.964;2022-10-16T15:03:47;4.73;;;1.13;;
44816;SDS011;30529;53.570;9.964;2022-10-16T15:09:10;7.00;;;2.13;;
44816;SDS011;30529;53.570;9.964;2022-10-16T15:11:37;4.57;;;1.80;;
44816;SDS011;30529;53.570;9.964;2022-10-16T15:14:03;4.40;;;1.80;;
44816;SDS011;30529;53.570;9.964;2022-10-16T15:16:30;4.50;;;1.60;;
44816;SDS011;30529;53.570;9.964;2022-10-16T15:18:57;5.93;;;1.57;;
44816;SDS011;30529;53.570;9.964;2022-10-16T15:21:28;16.67;;;2.30;;
44816;SDS011;30529;53.570;9.964;2022-10-16T15:23:56;6.10;;;1.63;;
44816;SDS011;30529;53.570;9.964;2022-10-16T15:26:24;2.83;;;1.20;;
44816;SDS011;30529;53.570;9.964;2022-10-16T15:28:55;7.27;;;1.23;;
44816;SDS011;30529;53.570;9.964;2022-10-16T15:37:17;5.03;;;1.40;;
44816;SDS011;30529;53.570;9.964;2022-10-16T15:39:44;3.33;;;1.27;;
44816;SDS011;30529;53.570;9.964;2022-10-16T15:42:10;2.97;;;1.20;;
44816;SDS011;30529;53.570;9.964;2022-10-16T15:44:39;5.27;;;1.43;;
44816;SDS011;30529;53.570;9.964;2022-10-16T15:47:05;3.97;;;1.20;;
44816;SDS011;30529;53.570;9.964;2022-10-16T15:49:31;3.97;;;1.30;;
44816;SDS011;30529;53.570;9.964;2022-10-16T15:52:03;3.63;;;1.20;;
44816;SDS011;30529;53.570;9.964;2022-10-16T15:54:36;6.57;;;1.80;;
44816;SDS011;30529;53.570;9.964;2022-10-16T15:57:02;4.50;;;1.50;;
44816;SDS011;30529;53.570;9.964;2022-10-16T15:59:28;6.43;;;1.83;;
44816;SDS011;30529;53.570;9.964;2022-10-16T16:01:57;6.83;;;1.80;;
44816;SDS011;30529;53.570;9.964;2022-10-16T16:04:23;4.93;;;1.57;;
44816;SDS011;30529;53.570;9.964;2022-10-16T16:09:42;4.43;;;1.60;;
44816;SDS011;30529;53.570;9.964;2022-10-16T16:12:11;5.57;;;1.50;;
44816;SDS011;30529;53.570;9.964;2022-10-16T16:14:37;4.43;;;1.80;;
44816;SDS011;30529;53.570;9.964;2022-10-16T16:17:06;7.40;;;2.00;;
44816;SDS011;30529;53.570;9.964;2022-10-16T16:19:32;7.40;;;1.90;;
44816;SDS011;30529;53.570;9.964;2022-10-16T16:22:04;7.90;;;1.97;;
44816;SDS011;30529;53.570;9.964;2022-10-16T16:24:42;4.83;;;1.93;;
44816;SDS011;30529;53.570;9.964;2022-10-16T16:27:09;8.00;;;2.33;;
44816;SDS011;30529;53.570;9.964;2022-10-16T16:29:35;7.00;;;2.60;;
44816;SDS011;30529;53.570;9.964;2022-10-16T16:32:02;12.70;;;4.03;;
44816;SDS011;30529;53.570;9.964;2022-10-16T16:34:28;7.80;;;2.50;;
44816;SDS011;30529;53.570;9.964;2022-10-16T16:36:55;8.33;;;2.77;;
44816;SDS011;30529;53.570;9.964;2022-10-16T16:39:21;5.83;;;3.20;;
44816;SDS011;30529;53.570;9.964;2022-10-16T16:41:48;4.20;;;2.20;;
44816;SDS011;30529;53.570;9.964;2022-10-16T16:44:15;10.93;;;3.33;;
44816;SDS011;30529;53.570;9.964;2022-10-16T16:46:42;7.07;;;3.13;;
44816;SDS011;30529;53.570;9.964;2022-10-16T16:49:13;8.47;;;3.03;;
44816;SDS011;30529;53.570;9.964;2022-10-16T16:51:40;9.23;;;3.77;;
44816;SDS011;30529;53.570;9.964;2022-10-16T16:54:10;8.07;;;3.27;;
44816;SDS011;30529;53.570;9.964;2022-10-16T16:56:41;8.40;;;3.13;;
44816;SDS011;30529;53.570;9.964;2022-10-16T16:59:12;10.87;;;3.37;;
44816;SDS011;30529;53.570;9.964;2022-10-16T17:07:36;6.87;;;3.17;;
44816;SDS011;30529;53.570;9.964;2022-10-16T17:18:40;8.37;;;4.03;;
44816;SDS011;30529;53.570;9.964;2022-10-16T17:21:08;9.43;;;3.60;;
44816;SDS011;30529;53.570;9.964;2022-10-16T17:23:35;11.43;;;3.60;;
44816;SDS011;30529;53.570;9.964;2022-10-16T17:26:03;8.97;;;3.80;;
44816;SDS011;30529;53.570;9.964;2022-10-16T17:28:35;10.27;;;3.70;;
44816;SDS011;30529;53.570;9.964;2022-10-16T17:31:08;27.40;;;13.17;;
44816;SDS011;30529;53.570;9.964;2022-10-16T17:33:43;31.47;;;16.03;;
44816;SDS011;30529;53.570;9.964;2022-10-16T17:36:10;15.57;;;5.77;;